Time;durP1;ratioP1;P1;durP2;ratioP2;P2;SDS_P1;SDS_P2;PMS_P1;PMS_P2;Temp;Humidity;BMP_temperature;BMP_pressure;BME280_temperature;BME280_humidity;BME280_pressure;Samples;Min_cycle;Max_cycle;Signal;HPM_P1;HPM_P2
2022/09/26 00:01:51;;;;;;;;;;;;;;;15.93;67.01;94836.94;5047315;28;20018;-69
2022/09/26 00:04:18;;;;;;;;;;;;;;;15.97;67.24;94837.03;5050744;28;20691;-70
2022/09/26 00:06:44;;;;;;;;;;;;;;;16.36;66.38;94836.06;5051303;28;20014;-70
2022/09/26 00:09:09;;;;;;;;;;;;;;;16.22;65.75;94835.72;5050842;28;20013;-69
2022/09/26 00:11:35;;;;;;;;;;;;;;;16.17;65.73;94843.25;5045785;28;20014;-69
2022/09/26 00:14:04;;;;;;;;;;;;;;;16.22;66.00;94834.94;5033154;28;20100;-69
2022/09/26 00:16:29;;;;;;;;;;;;;;;16.41;65.89;94829.66;5036497;28;20021;-69
2022/09/26 00:18:55;;;;;;;;;;;;;;;16.56;66.02;94828.88;5037833;28;20093;-69
2022/09/26 00:21:21;;;;;;;;;;;;;;;16.68;65.60;94832.56;5051588;28;20117;-69
2022/09/26 00:23:47;;;;;;;;;;;;;;;16.63;65.02;94829.03;5050135;28;20370;-69
2022/09/26 00:26:13;;;;;;;;;;;;;;;15.99;66.17;94826.75;5034242;28;20025;-69
2022/09/26 00:28:39;;;;;;;;;;;;;;;15.85;66.89;94827.94;5034085;28;20426;-70
2022/09/26 00:31:05;;;;;;;;;;;;;;;16.18;66.24;94816.09;5051957;28;20018;-70
2022/09/26 00:33:30;;;;;;;;;;;;;;;16.28;66.07;94817.50;5050470;28;20104;-70
2022/09/26 00:35:55;;;;;;;;;;;;;;;16.26;65.65;94817.03;5052974;28;20114;-69
2022/09/26 00:38:21;;;;;;;;;;;;;;;16.19;65.89;94819.56;5049998;28;20056;-70
2022/09/26 00:40:47;;;;;;;;;;;;;;;16.10;66.15;94817.03;5049560;28;20592;-70
2022/09/26 00:43:30;;;;;;;;;;;;;;;16.07;65.79;94815.03;5050613;28;20009;-69
2022/09/26 00:45:58;;;;;;;;;;;;;;;16.37;65.41;94812.69;5051731;28;20104;-69
2022/09/26 00:48:24;;;;;;;;;;;;;;;16.03;66.36;94814.19;5051037;28;20505;-69
2022/09/26 00:50:50;;;;;;;;;;;;;;;15.22;68.33;94824.31;5051799;28;20009;-69
2022/09/26 00:53:21;;;;;;;;;;;;;;;15.68;67.49;94809.50;5039051;28;20014;-69
2022/09/26 00:55:50;;;;;;;;;;;;;;;16.06;66.96;94802.75;5052393;28;20401;-70
2022/09/26 00:58:31;;;;;;;;;;;;;;;16.16;66.35;94806.81;5049887;28;20405;-69
2022/09/26 01:00:58;;;;;;;;;;;;;;;16.16;65.97;94806.81;5049017;28;20485;-69
2022/09/26 01:03:24;;;;;;;;;;;;;;;16.22;65.87;94798.16;5050152;28;20098;-69
2022/09/26 01:05:49;;;;;;;;;;;;;;;16.29;65.80;94790.28;5051456;28;20044;-70
2022/09/26 01:08:16;;;;;;;;;;;;;;;16.40;65.73;94801.28;5065946;28;20021;-69
2022/09/26 01:10:44;;;;;;;;;;;;;;;16.14;65.38;94790.31;5050616;28;20010;-69
2022/09/26 01:13:10;;;;;;;;;;;;;;;16.11;65.47;94795.22;5033647;28;20064;-69
2022/09/26 01:15:35;;;;;;;;;;;;;;;16.20;66.02;94791.59;5047533;28;20526;-68
2022/09/26 01:18:01;;;;;;;;;;;;;;;16.11;66.07;94791.78;5051984;28;20381;-69
2022/09/26 01:20:28;;;;;;;;;;;;;;;16.38;65.86;94792.81;5048444;28;20112;-69
2022/09/26 01:23:04;;;;;;;;;;;;;;;16.35;64.98;94790.81;5049876;28;20112;-69
2022/09/26 01:25:33;;;;;;;;;;;;;;;16.29;65.20;94795.66;5050875;28;20444;-69
2022/09/26 01:28:05;;;;;;;;;;;;;;;16.09;65.50;94791.34;5050948;28;20009;-69
2022/09/26 01:30:43;;;;;;;;;;;;;;;16.14;65.34;94798.34;5050347;28;20378;-69
2022/09/26 01:33:18;;;;;;;;;;;;;;;16.04;65.25;94789.69;5049646;28;20059;-69
2022/09/26 01:35:50;;;;;;;;;;;;;;;16.33;65.17;94793.84;5049571;28;20074;-70
2022/09/26 01:38:29;;;;;;;;;;;;;;;16.28;64.76;94791.44;5047873;28;20010;-69
2022/09/26 01:41:00;;;;;;;;;;;;;;;16.25;64.58;94785.97;5051535;28;20100;-69
2022/09/26 01:43:33;;;;;;;;;;;;;;;16.41;64.57;94788.63;5049234;28;20517;-69
2022/09/26 01:46:17;;;;;;;;;;;;;;;16.42;64.02;94790.19;5049723;28;20006;-69
2022/09/26 01:48:47;;;;;;;;;;;;;;;16.59;64.47;94781.75;5049834;28;20017;-69
2022/09/26 01:51:35;;;;;;;;;;;;;;;16.64;64.07;94776.91;5031657;28;20497;-69
2022/09/26 01:54:04;;;;;;;;;;;;;;;16.76;63.70;94776.00;5030112;28;20104;-69
2022/09/26 01:56:32;;;;;;;;;;;;;;;16.80;63.57;94773.41;5045628;28;20018;-69
2022/09/26 01:59:00;;;;;;;;;;;;;;;16.79;63.07;94774.53;5032027;28;20002;-69
2022/09/26 02:01:28;;;;;;;;;;;;;;;16.84;63.07;94774.28;5048545;28;20017;-69
2022/09/26 02:03:55;;;;;;;;;;;;;;;16.91;62.88;94771.72;5049420;28;20021;-69
2022/09/26 02:06:29;;;;;;;;;;;;;;;16.99;62.72;94769.94;5050351;28;20683;-69
2022/09/26 02:09:00;;;;;;;;;;;;;;;17.04;62.61;94778.50;5049748;28;20010;-69
2022/09/26 02:11:25;;;;;;;;;;;;;;;16.95;61.75;94772.56;5050727;28;20104;-69
2022/09/26 02:13:56;;;;;;;;;;;;;;;16.97;62.20;94770.31;5048577;28;20092;-69
2022/09/26 02:16:28;;;;;;;;;;;;;;;17.03;62.26;94768.88;5046042;28;20028;-69
2022/09/26 02:19:01;;;;;;;;;;;;;;;17.08;62.14;94763.22;5047690;28;20351;-70
2022/09/26 02:21:26;;;;;;;;;;;;;;;16.96;61.37;94765.28;5049877;28;20025;-69
2022/09/26 02:23:52;;;;;;;;;;;;;;;16.95;62.11;94761.06;5047324;28;20477;-69
2022/09/26 02:26:18;;;;;;;;;;;;;;;16.99;62.21;94762.66;5049238;28;20477;-69
2022/09/26 02:28:43;;;;;;;;;;;;;;;17.00;62.08;94753.47;5044136;28;20088;-69
2022/09/26 02:31:10;;;;;;;;;;;;;;;17.06;62.09;94760.13;5038840;28;20014;-69
2022/09/26 02:33:35;;;;;;;;;;;;;;;16.84;61.59;94761.63;5047642;28;20005;-70
2022/09/26 02:36:04;;;;;;;;;;;;;;;16.92;61.62;94757.16;5050489;28;20024;-69
2022/09/26 02:38:30;;;;;;;;;;;;;;;16.44;62.39;94758.41;5046175;28;20045;-70
2022/09/26 02:41:12;;;;;;;;;;;;;;;16.58;61.91;94751.44;5050484;28;20112;-69
2022/09/26 02:43:52;;;;;;;;;;;;;;;16.31;62.99;94755.03;5048223;28;20474;-69
2022/09/26 02:46:23;;;;;;;;;;;;;;;16.57;62.66;94754.47;5047128;28;20012;-69
2022/09/26 02:49:07;;;;;;;;;;;;;;;16.07;63.29;94748.78;5044856;28;20009;-69
2022/09/26 02:51:35;;;;;;;;;;;;;;;16.01;64.20;94752.06;5029969;28;20478;-70
2022/09/26 02:54:10;;;;;;;;;;;;;;;15.86;63.80;94719.53;5047277;28;20020;-69
2022/09/26 02:56:44;;;;;;;;;;;;;;;15.94;64.32;94749.97;5048967;28;20012;-69
2022/09/26 02:59:33;;;;;;;;;;;;;;;16.22;63.75;94755.22;5048713;28;20023;-69
2022/09/26 03:02:04;;;;;;;;;;;;;;;16.22;63.51;94746.41;5049300;28;20501;-69
2022/09/26 03:04:32;;;;;;;;;;;;;;;16.35;63.32;94748.63;5048221;28;20017;-69
2022/09/26 03:07:01;;;;;;;;;;;;;;;16.26;63.14;94752.63;5047500;28;20014;-69
2022/09/26 03:09:28;;;;;;;;;;;;;;;16.20;63.43;94754.03;5048556;28;20017;-69
2022/09/26 03:11:54;;;;;;;;;;;;;;;15.97;63.75;94760.03;5049876;28;20013;-69
2022/09/26 03:14:22;;;;;;;;;;;;;;;16.08;64.04;94758.38;5049019;28;20020;-69
2022/09/26 03:16:49;;;;;;;;;;;;;;;16.28;64.01;94753.06;5047159;28;20013;-69
2022/09/26 03:19:17;;;;;;;;;;;;;;;15.77;64.52;94751.13;5045855;28;20017;-69
2022/09/26 03:21:44;;;;;;;;;;;;;;;15.88;64.77;94748.69;5046118;28;20021;-69
2022/09/26 03:24:09;;;;;;;;;;;;;;;16.09;64.35;94749.19;5045395;28;20017;-69
2022/09/26 03:26:34;;;;;;;;;;;;;;;16.01;64.41;94747.47;5048113;28;20523;-69
2022/09/26 03:29:00;;;;;;;;;;;;;;;15.92;64.27;94748.75;5047542;28;20021;-69
2022/09/26 03:31:25;;;;;;;;;;;;;;;15.86;64.76;94750.94;5047095;28;20059;-69
2022/09/26 03:33:51;;;;;;;;;;;;;;;16.15;64.39;94740.88;5048793;28;20488;-69
2022/09/26 03:36:16;;;;;;;;;;;;;;;15.85;64.33;94744.78;5045805;28;20409;-69
2022/09/26 03:38:42;;;;;;;;;;;;;;;16.07;64.55;94743.41;5050350;28;20009;-69
2022/09/26 03:41:08;;;;;;;;;;;;;;;16.08;64.37;94738.81;5050654;28;20014;-69
2022/09/26 03:43:33;;;;;;;;;;;;;;;16.09;64.17;94738.47;5052929;28;20514;-69
2022/09/26 03:46:03;;;;;;;;;;;;;;;15.83;65.13;94733.63;5045574;28;20104;-69
2022/09/26 03:48:29;;;;;;;;;;;;;;;16.26;64.55;94728.47;5049316;28;20020;-69
2022/09/26 03:50:54;;;;;;;;;;;;;;;15.93;64.46;94723.53;5033684;28;20689;-69
2022/09/26 03:53:19;;;;;;;;;;;;;;;16.29;64.25;94725.09;5032414;28;20474;-69
2022/09/26 03:55:45;;;;;;;;;;;;;;;16.48;63.89;94717.09;5050514;28;20021;-69
2022/09/26 03:58:10;;;;;;;;;;;;;;;16.66;63.56;94722.06;5052112;28;20012;-69
2022/09/26 04:00:36;;;;;;;;;;;;;;;16.64;62.78;94722.41;5037148;28;20295;-69
2022/09/26 04:03:02;;;;;;;;;;;;;;;16.63;62.62;94723.50;5046564;28;20017;-69
2022/09/26 04:05:28;;;;;;;;;;;;;;;16.73;62.66;94716.84;5039627;28;20013;-69
2022/09/26 04:07:54;;;;;;;;;;;;;;;16.77;62.32;94715.00;5050594;28;20034;-69
2022/09/26 04:10:19;;;;;;;;;;;;;;;16.73;62.37;94706.88;5052176;28;20013;-69
2022/09/26 04:12:44;;;;;;;;;;;;;;;16.83;62.42;94708.22;5052431;28;20014;-69
2022/09/26 04:15:10;;;;;;;;;;;;;;;16.79;62.23;94707.41;5052406;28;20013;-69
2022/09/26 04:17:35;;;;;;;;;;;;;;;16.56;63.06;94707.28;5050080;28;20022;-71
2022/09/26 04:20:01;;;;;;;;;;;;;;;16.44;63.26;94700.13;5051531;28;20022;-69
2022/09/26 04:22:26;;;;;;;;;;;;;;;16.33;63.79;94691.84;5051755;28;20056;-70
2022/09/26 04:24:52;;;;;;;;;;;;;;;15.85;64.45;94701.09;5051994;28;20013;-70
2022/09/26 04:27:17;;;;;;;;;;;;;;;15.31;66.68;94699.00;5052206;28;20017;-70
2022/09/26 04:29:43;;;;;;;;;;;;;;;15.80;67.99;94693.31;5049704;28;20010;-69
2022/09/26 04:32:09;;;;;;;;;;;;;;;15.75;67.51;94688.22;5051142;28;20485;-69
2022/09/26 04:34:37;;;;;;;;;;;;;;;15.16;67.84;94689.81;5050074;28;20048;-69
2022/09/26 04:37:02;;;;;;;;;;;;;;;15.11;69.00;94683.94;5048781;28;20010;-69
2022/09/26 04:39:27;;;;;;;;;;;;;;;14.90;70.07;94690.28;5052445;28;20013;-69
2022/09/26 04:41:53;;;;;;;;;;;;;;;15.32;69.54;94692.53;5050713;28;20017;-69
2022/09/26 04:44:18;;;;;;;;;;;;;;;15.42;69.23;94697.38;5043041;28;20010;-69
2022/09/26 04:46:43;;;;;;;;;;;;;;;14.59;70.52;94692.84;5049133;28;20009;-69
2022/09/26 04:49:08;;;;;;;;;;;;;;;14.44;72.10;94700.47;5051700;28;20409;-69
2022/09/26 04:51:34;;;;;;;;;;;;;;;14.81;70.90;94686.97;5041124;28;20050;-70
2022/09/26 04:54:00;;;;;;;;;;;;;;;14.51;70.78;94699.91;5032530;28;20885;-69
2022/09/26 04:56:26;;;;;;;;;;;;;;;14.19;72.09;94693.59;5039662;28;20627;-70
2022/09/26 04:58:53;;;;;;;;;;;;;;;14.69;70.55;94703.06;5037326;28;20470;-69
2022/09/26 05:01:19;;;;;;;;;;;;;;;14.68;71.08;94693.47;5042139;28;20017;-69
2022/09/26 05:03:45;;;;;;;;;;;;;;;14.32;72.38;94692.44;5052322;28;20504;-69
2022/09/26 05:06:11;;;;;;;;;;;;;;;14.70;71.41;94691.28;5050542;28;20006;-69
2022/09/26 05:08:37;;;;;;;;;;;;;;;14.23;72.59;94692.59;5050672;28;20018;-69
2022/09/26 05:11:03;;;;;;;;;;;;;;;13.75;73.60;94690.72;5049405;28;20088;-69
2022/09/26 05:13:28;;;;;;;;;;;;;;;13.97;73.59;94692.16;5052055;28;20061;-69
2022/09/26 05:15:54;;;;;;;;;;;;;;;13.98;74.06;94699.88;5050659;28;20032;-69
2022/09/26 05:18:22;;;;;;;;;;;;;;;14.51;73.25;94694.56;5050503;28;20009;-69
2022/09/26 05:20:48;;;;;;;;;;;;;;;14.60;72.74;94697.88;5050788;28;20477;-69
2022/09/26 05:26:18;;;;;;;;;;;;;;;13.76;74.63;94708.31;5051378;28;20063;-69
2022/09/26 05:28:43;;;;;;;;;;;;;;;14.08;73.81;94695.19;5031740;28;20064;-71
2022/09/26 05:31:08;;;;;;;;;;;;;;;14.08;73.80;94703.22;5047691;28;20009;-72
2022/09/26 05:33:37;;;;;;;;;;;;;;;14.01;73.91;94704.53;5051677;28;20016;-69
2022/09/26 05:36:03;;;;;;;;;;;;;;;14.49;73.91;94697.56;5044772;28;20014;-69
2022/09/26 05:38:28;;;;;;;;;;;;;;;14.77;73.34;94694.13;5048610;28;20381;-71
2022/09/26 05:40:56;;;;;;;;;;;;;;;14.55;72.81;94704.25;5049072;28;20014;-71
2022/09/26 05:43:28;;;;;;;;;;;;;;;14.51;71.26;94698.00;5049027;28;20014;-70
2022/09/26 05:45:57;;;;;;;;;;;;;;;14.76;71.35;94706.75;5045653;28;20009;-72
2022/09/26 05:48:22;;;;;;;;;;;;;;;14.77;71.50;94702.94;5045920;28;20049;-71
2022/09/26 05:50:48;;;;;;;;;;;;;;;14.74;72.35;94700.97;5045929;28;20064;-72
2022/09/26 05:53:13;;;;;;;;;;;;;;;14.82;71.32;94694.66;5050794;28;20417;-72
2022/09/26 05:55:38;;;;;;;;;;;;;;;14.70;71.24;94694.72;5049103;28;20021;-72
2022/09/26 05:58:05;;;;;;;;;;;;;;;14.46;71.30;94692.84;5051311;28;20006;-72
2022/09/26 06:00:30;;;;;;;;;;;;;;;13.92;72.84;94690.53;5048874;28;20960;-71
2022/09/26 06:02:56;;;;;;;;;;;;;;;13.67;74.41;94696.97;5050699;28;20064;-71
2022/09/26 06:05:24;;;;;;;;;;;;;;;13.82;74.74;94693.66;5050163;28;20111;-71
2022/09/26 06:07:51;;;;;;;;;;;;;;;14.21;74.13;94689.47;5049277;28;20133;-71
2022/09/26 06:10:17;;;;;;;;;;;;;;;14.05;73.22;94691.28;5034622;28;20018;-71
2022/09/26 06:12:42;;;;;;;;;;;;;;;14.06;72.99;94700.84;5047519;28;20528;-71
2022/09/26 06:15:10;;;;;;;;;;;;;;;14.07;72.02;94697.06;5046939;28;20017;-71
2022/09/26 06:17:35;;;;;;;;;;;;;;;13.78;73.95;94703.44;5035829;28;20013;-71
2022/09/26 06:20:01;;;;;;;;;;;;;;;13.97;74.02;94705.53;5048094;28;20017;-71
2022/09/26 06:22:27;;;;;;;;;;;;;;;14.01;72.82;94707.19;5049694;28;20021;-71
2022/09/26 06:24:52;;;;;;;;;;;;;;;14.44;72.49;94695.09;5038476;28;20104;-71
2022/09/26 06:27:18;;;;;;;;;;;;;;;14.39;72.79;94702.59;5050041;28;20104;-71
2022/09/26 06:29:43;;;;;;;;;;;;;;;14.86;72.66;94697.44;5047700;28;20013;-72
2022/09/26 06:32:08;;;;;;;;;;;;;;;15.07;70.42;94695.31;5048492;28;20020;-71
2022/09/26 06:34:33;;;;;;;;;;;;;;;15.17;69.95;94698.63;5049888;28;20013;-73
2022/09/26 06:36:58;;;;;;;;;;;;;;;15.21;70.32;94696.84;5048563;28;20014;-72
2022/09/26 06:39:30;;;;;;;;;;;;;;;15.12;69.98;94696.22;5050025;28;20005;-72
2022/09/26 06:41:55;;;;;;;;;;;;;;;15.02;69.52;94702.84;5047604;28;20079;-72
2022/09/26 06:44:21;;;;;;;;;;;;;;;15.37;68.77;94702.97;5049654;28;20471;-71
2022/09/26 06:46:46;;;;;;;;;;;;;;;15.75;69.71;94688.22;5048916;28;20045;-72
2022/09/26 06:49:11;;;;;;;;;;;;;;;15.22;68.67;94696.47;5048952;28;20108;-71
2022/09/26 06:51:37;;;;;;;;;;;;;;;15.14;68.56;94697.41;5049463;28;20013;-72
2022/09/26 06:54:02;;;;;;;;;;;;;;;15.50;69.57;94692.94;5048517;28;20669;-71
2022/09/26 06:56:27;;;;;;;;;;;;;;;16.04;70.11;94698.50;5047479;28;20017;-72
2022/09/26 06:58:53;;;;;;;;;;;;;;;16.34;69.25;94698.00;5049154;28;20013;-71
2022/09/26 07:01:18;;;;;;;;;;;;;;;15.79;67.46;94697.13;5048007;28;20469;-71
2022/09/26 07:03:43;;;;;;;;;;;;;;;15.98;67.15;94699.13;5047342;28;20009;-72
2022/09/26 07:06:08;;;;;;;;;;;;;;;16.36;67.08;94693.81;5046727;28;20381;-73
2022/09/26 07:08:33;;;;;;;;;;;;;;;16.60;68.25;94700.84;5047779;28;20013;-72
2022/09/26 07:10:59;;;;;;;;;;;;;;;16.38;65.09;94688.13;5049810;28;20013;-72
2022/09/26 07:13:25;;;;;;;;;;;;;;;16.28;66.29;94689.44;5046886;28;20014;-71
2022/09/26 07:15:50;;;;;;;;;;;;;;;16.54;67.82;94686.16;5050334;28;20013;-72
2022/09/26 07:18:16;;;;;;;;;;;;;;;16.70;67.38;94686.09;5049951;28;20470;-71
2022/09/26 07:20:46;;;;;;;;;;;;;;;16.89;67.83;94682.66;5049825;28;20100;-73
2022/09/26 07:23:12;;;;;;;;;;;;;;;17.14;68.25;94683.09;5048217;28;20108;-72
2022/09/26 07:25:40;;;;;;;;;;;;;;;17.30;67.89;94675.72;5048760;28;20152;-72
2022/09/26 07:28:06;;;;;;;;;;;;;;;17.15;65.40;94677.38;5049307;28;20014;-73
2022/09/26 07:30:31;;;;;;;;;;;;;;;17.39;67.00;94670.88;5049475;28;20006;-72
2022/09/26 07:33:02;;;;;;;;;;;;;;;17.62;67.05;94681.63;5046162;28;20398;-72
2022/09/26 07:35:27;;;;;;;;;;;;;;;17.89;67.11;94679.00;5049323;28;20455;-71
2022/09/26 07:37:52;;;;;;;;;;;;;;;17.95;66.55;94685.63;5049739;28;20044;-70
2022/09/26 07:40:20;;;;;;;;;;;;;;;18.03;66.07;94687.28;5048106;28;20016;-70
2022/09/26 07:42:45;;;;;;;;;;;;;;;18.05;65.13;94681.53;5047393;28;20026;-72
2022/09/26 07:45:11;;;;;;;;;;;;;;;18.08;64.65;94676.22;5046413;28;20059;-74
2022/09/26 07:50:20;;;;;;;;;;;;;;;18.06;64.36;94675.78;5049246;28;20024;-74
2022/09/26 07:52:47;;;;;;;;;;;;;;;18.01;64.46;94681.47;5049196;28;20009;-74
2022/09/26 07:55:14;;;;;;;;;;;;;;;18.03;63.88;94673.84;5046797;28;20009;-73
2022/09/26 07:57:39;;;;;;;;;;;;;;;18.07;64.20;94673.91;5046421;28;20014;-73
2022/09/26 08:00:06;;;;;;;;;;;;;;;18.15;63.36;94681.69;5048099;28;20104;-73
2022/09/26 08:02:35;;;;;;;;;;;;;;;18.21;63.24;94674.09;5048453;28;20120;-73
2022/09/26 08:05:03;;;;;;;;;;;;;;;18.31;63.04;94667.28;5049570;28;20385;-67
2022/09/26 08:07:29;;;;;;;;;;;;;;;18.43;62.10;94669.78;5043320;28;20017;-70
2022/09/26 08:09:55;;;;;;;;;;;;;;;18.80;61.29;94661.03;5046896;28;20070;-70
2022/09/26 08:12:21;;;;;;;;;;;;;;;19.09;59.64;94659.38;5046113;28;20013;-70
2022/09/26 08:14:50;;;;;;;;;;;;;;;19.42;59.68;94658.56;5036150;28;20375;-69
2022/09/26 08:17:15;;;;;;;;;;;;;;;19.01;57.08;94655.84;5048689;28;20040;-69
2022/09/26 08:19:41;;;;;;;;;;;;;;;17.88;59.15;94662.09;5049252;28;20009;-69
2022/09/26 08:22:07;;;;;;;;;;;;;;;16.58;60.54;94664.72;5049307;28;20013;-69
2022/09/26 08:24:32;;;;;;;;;;;;;;;17.67;58.47;94661.72;5049208;28;20083;-69
2022/09/26 08:26:57;;;;;;;;;;;;;;;17.32;59.94;94661.91;5049847;28;20120;-69
2022/09/26 08:29:23;;;;;;;;;;;;;;;17.25;59.83;94659.91;5052784;28;20755;-69
2022/09/26 08:31:50;;;;;;;;;;;;;;;16.74;59.54;94664.72;5052958;28;20002;-67
2022/09/26 08:34:15;;;;;;;;;;;;;;;15.40;64.59;94662.06;5052284;28;20021;-68
2022/09/26 08:36:40;;;;;;;;;;;;;;;16.48;62.01;94663.41;5051591;28;20402;-70
2022/09/26 08:39:05;;;;;;;;;;;;;;;15.91;63.35;94659.47;5052648;28;20095;-69
2022/09/26 08:41:46;;;;;;;;;;;;;;;16.61;61.97;94651.38;5050696;28;20017;-69
2022/09/26 08:44:30;;;;;;;;;;;;;;;16.99;61.53;94647.13;5051610;28;20014;-69
2022/09/26 08:47:01;;;;;;;;;;;;;;;15.84;62.97;94645.91;5050523;28;20056;-69
2022/09/26 08:49:40;;;;;;;;;;;;;;;15.57;65.15;94648.34;5050030;28;20013;-68
2022/09/26 08:52:12;;;;;;;;;;;;;;;15.95;63.30;94646.94;5051188;28;20063;-69
2022/09/26 08:54:42;;;;;;;;;;;;;;;16.28;61.44;94645.72;5051157;28;20014;-69
2022/09/26 08:57:16;;;;;;;;;;;;;;;16.36;61.39;94632.09;5049225;28;22161;-70
2022/09/26 08:59:42;;;;;;;;;;;;;;;16.44;61.27;94635.72;5050659;28;20452;-69
2022/09/26 09:02:40;;;;;;;;;;;;;;;16.15;61.84;94637.00;5051400;28;20358;-68
2022/09/26 09:05:16;;;;;;;;;;;;;;;16.24;61.07;94629.53;5018806;28;20010;-68
2022/09/26 09:07:41;;;;;;;;;;;;;;;17.44;59.72;94636.75;5051430;28;20100;-68
2022/09/26 09:10:09;;;;;;;;;;;;;;;18.10;57.58;94622.78;5050391;28;20120;-68
2022/09/26 09:12:50;;;;;;;;;;;;;;;18.15;57.10;94627.88;5049226;28;20016;-69
2022/09/26 09:15:21;;;;;;;;;;;;;;;18.48;54.87;94622.88;5052251;28;20009;-68
2022/09/26 09:18:03;;;;;;;;;;;;;;;18.46;54.49;94625.94;5051273;28;20013;-68
2022/09/26 09:20:28;;;;;;;;;;;;;;;18.58;54.44;94623.03;5048210;28;20013;-69
2022/09/26 09:23:01;;;;;;;;;;;;;;;16.64;58.71;94621.16;5051926;28;20062;-69
2022/09/26 09:25:50;;;;;;;;;;;;;;;16.32;59.89;94628.53;5050696;28;20612;-70
2022/09/26 09:28:24;;;;;;;;;;;;;;;16.65;59.46;94621.91;5038996;28;20029;-69
2022/09/26 09:30:59;;;;;;;;;;;;;;;18.68;56.32;94616.22;5051234;28;20048;-69
2022/09/26 09:33:26;;;;;;;;;;;;;;;19.48;54.09;94611.22;5050335;28;20059;-70
2022/09/26 09:35:58;;;;;;;;;;;;;;;19.18;51.08;94606.72;5051108;28;20104;-70
2022/09/26 09:38:27;;;;;;;;;;;;;;;17.26;55.79;94609.59;5049950;28;20041;-69
2022/09/26 09:41:01;;;;;;;;;;;;;;;16.58;56.82;94611.03;5049977;28;20484;-68
2022/09/26 09:43:34;;;;;;;;;;;;;;;17.39;56.24;94617.09;5048689;28;20066;-71
2022/09/26 09:46:15;;;;;;;;;;;;;;;17.38;56.73;94607.50;5050179;28;20442;-71
2022/09/26 09:48:40;;;;;;;;;;;;;;;16.21;58.94;94606.09;5050482;28;20013;-77
2022/09/26 09:51:22;;;;;;;;;;;;;;;17.10;56.81;94599.75;5050109;28;20010;-70
2022/09/26 09:53:47;;;;;;;;;;;;;;;16.43;58.55;94601.94;5048805;28;20018;-73
2022/09/26 09:56:21;;;;;;;;;;;;;;;16.13;59.22;94595.56;5047809;28;20120;-74
2022/09/26 09:58:54;;;;;;;;;;;;;;;16.14;58.75;94599.81;5049396;28;20013;-72
2022/09/26 10:01:25;;;;;;;;;;;;;;;16.08;59.18;94602.00;5050054;28;20009;-73
2022/09/26 10:04:12;;;;;;;;;;;;;;;16.83;58.13;94592.72;5050172;28;20359;-71
2022/09/26 10:06:40;;;;;;;;;;;;;;;17.73;55.82;94593.06;5048807;28;20108;-74
2022/09/26 10:09:17;;;;;;;;;;;;;;;18.55;54.33;94583.34;5048366;28;20470;-72
2022/09/26 10:11:42;;;;;;;;;;;;;;;18.47;52.71;94581.72;5051356;28;20006;-72
2022/09/26 10:14:14;;;;;;;;;;;;;;;18.79;51.50;94579.41;5049809;28;20016;-78
2022/09/26 10:16:58;;;;;;;;;;;;;;;19.91;49.71;94577.25;5051418;28;20010;-75
2022/09/26 10:19:35;;;;;;;;;;;;;;;19.49;48.68;94569.59;5050486;28;20013;-81
2022/09/26 10:22:01;;;;;;;;;;;;;;;18.61;53.23;94573.78;5051434;28;20023;-82
2022/09/26 10:24:37;;;;;;;;;;;;;;;16.61;56.28;94576.19;5050907;28;20029;-72
2022/09/26 10:27:21;;;;;;;;;;;;;;;16.10;58.13;94591.69;5050482;28;20017;-77
2022/09/26 10:29:55;;;;;;;;;;;;;;;16.43;65.48;94593.09;5048990;28;20014;-78
2022/09/26 10:32:22;;;;;;;;;;;;;;;16.08;66.98;94602.78;5049108;28;20516;-72
2022/09/26 10:35:06;;;;;;;;;;;;;;;15.65;67.27;94586.88;5049663;28;20127;-73
2022/09/26 10:37:35;;;;;;;;;;;;;;;14.70;70.46;94586.88;5049682;28;20120;-71
2022/09/26 10:42:46;;;;;;;;;;;;;;;14.80;73.32;94594.41;5043927;28;20040;-70
2022/09/26 10:45:14;;;;;;;;;;;;;;;15.05;71.25;94585.09;5050340;28;20393;-70
2022/09/26 10:47:42;;;;;;;;;;;;;;;14.79;68.83;94593.63;5045638;28;20002;-70
2022/09/26 10:50:10;;;;;;;;;;;;;;;14.25;68.73;94585.25;5041187;28;20037;-71
2022/09/26 10:52:39;;;;;;;;;;;;;;;14.65;69.10;94585.22;5049453;28;20010;-69
2022/09/26 10:55:14;;;;;;;;;;;;;;;14.91;68.36;94590.09;5050303;28;20005;-69
2022/09/26 10:57:50;;;;;;;;;;;;;;;15.57;69.05;94573.28;5048818;28;21039;-71
2022/09/26 11:00:20;;;;;;;;;;;;;;;16.38;68.64;94572.69;5050047;28;20016;-70
2022/09/26 11:02:46;;;;;;;;;;;;;;;17.22;67.72;94581.88;5034495;28;20018;-71
2022/09/26 11:07:58;;;;;;;;;;;;;;;18.05;62.90;94565.81;5044041;28;20020;-70
2022/09/26 11:10:27;;;;;;;;;;;;;;;17.67;63.51;94568.38;5047522;28;20085;-70
2022/09/26 11:12:55;;;;;;;;;;;;;;;17.00;62.87;94568.09;5047406;28;20460;-70
2022/09/26 11:15:22;;;;;;;;;;;;;;;17.31;63.73;94552.84;5048853;28;20024;-71
2022/09/26 11:17:51;;;;;;;;;;;;;;;16.23;62.73;94558.22;5048843;28;20104;-70
2022/09/26 11:20:22;;;;;;;;;;;;;;;15.96;62.99;94559.97;5048280;28;20104;-70
2022/09/26 11:22:52;;;;;;;;;;;;;;;16.24;61.45;94550.94;5049060;28;20018;-70
2022/09/26 11:25:24;;;;;;;;;;;;;;;16.58;62.99;94550.06;5046624;28;20014;-70
2022/09/26 11:27:56;;;;;;;;;;;;;;;16.25;61.78;94547.13;5048338;28;20498;-69
2022/09/26 11:30:21;;;;;;;;;;;;;;;17.14;59.57;94533.38;5048073;28;20041;-70
2022/09/26 11:32:51;;;;;;;;;;;;;;;17.59;58.27;94533.66;5044223;28;20053;-70
2022/09/26 11:35:32;;;;;;;;;;;;;;;17.25;57.38;94532.75;5050065;28;20429;-71
2022/09/26 11:38:04;;;;;;;;;;;;;;;17.90;55.92;94525.28;5048578;28;20543;-69
2022/09/26 11:40:48;;;;;;;;;;;;;;;16.48;55.61;94529.19;5049741;28;20006;-69
2022/09/26 11:43:32;;;;;;;;;;;;;;;17.89;55.34;94522.97;5046801;28;20014;-71
2022/09/26 11:46:13;;;;;;;;;;;;;;;17.93;53.95;94521.88;5048420;28;20509;-70
2022/09/26 11:49:04;;;;;;;;;;;;;;;19.13;55.32;94501.94;5047945;28;20013;-70
2022/09/26 11:51:32;;;;;;;;;;;;;;;18.75;52.95;94500.47;5049384;28;20010;-70
2022/09/26 11:53:57;;;;;;;;;;;;;;;19.10;54.15;94502.69;5047654;28;20061;-70
2022/09/26 11:56:25;;;;;;;;;;;;;;;19.15;51.35;94502.34;5049802;28;20053;-69
2022/09/26 11:59:06;;;;;;;;;;;;;;;18.17;51.27;94496.41;5047866;28;20013;-68
2022/09/26 12:01:44;;;;;;;;;;;;;;;18.42;52.26;94495.88;5053506;28;20017;-71
2022/09/26 12:04:28;;;;;;;;;;;;;;;18.22;53.11;94487.22;5051462;28;20056;-69
2022/09/26 12:06:55;;;;;;;;;;;;;;;18.66;52.19;94487.25;5049143;28;20014;-69
2022/09/26 12:09:33;;;;;;;;;;;;;;;20.11;48.44;94480.53;5052091;28;20014;-70
2022/09/26 12:12:02;;;;;;;;;;;;;;;18.93;49.82;94487.91;5053519;28;20009;-69
2022/09/26 12:14:35;;;;;;;;;;;;;;;18.66;52.03;94473.78;5050617;28;20023;-69
2022/09/26 12:17:06;;;;;;;;;;;;;;;19.71;49.78;94468.81;5053641;28;20496;-70
2022/09/26 12:19:35;;;;;;;;;;;;;;;20.59;49.83;94458.69;5051460;28;20055;-70
2022/09/26 12:24:50;;;;;;;;;;;;;;;21.03;44.43;94457.53;5052425;28;20492;-70
2022/09/26 12:27:24;;;;;;;;;;;;;;;21.73;43.85;94450.50;5047368;28;20013;-71
2022/09/26 12:30:10;;;;;;;;;;;;;;;20.58;44.35;94443.66;5049425;28;20014;-70
2022/09/26 12:32:41;;;;;;;;;;;;;;;20.71;43.77;94439.41;5051826;28;20009;-70
2022/09/26 12:35:06;;;;;;;;;;;;;;;19.58;47.29;94435.19;5053127;28;20442;-70
2022/09/26 12:37:51;;;;;;;;;;;;;;;19.53;47.00;94432.06;5051841;28;20016;-70
2022/09/26 12:40:28;;;;;;;;;;;;;;;20.44;46.43;94430.88;5049786;28;20009;-69
2022/09/26 12:43:03;;;;;;;;;;;;;;;20.15;45.17;94429.25;5050296;28;20099;-70
2022/09/26 12:45:37;;;;;;;;;;;;;;;19.61;45.88;94433.69;5049805;28;20370;-69
2022/09/26 12:48:18;;;;;;;;;;;;;;;19.08;47.24;94426.03;5051594;28;20139;-70
2022/09/26 12:51:02;;;;;;;;;;;;;;;19.19;47.26;94421.47;5051601;28;20107;-69
2022/09/26 12:53:27;;;;;;;;;;;;;;;18.31;49.61;94419.59;5051446;28;20013;-70
2022/09/26 12:56:00;;;;;;;;;;;;;;;17.76;50.61;94424.78;5052195;28;20422;-70
2022/09/26 12:58:25;;;;;;;;;;;;;;;17.56;53.07;94419.56;5050161;28;20013;-69
2022/09/26 13:00:57;;;;;;;;;;;;;;;16.49;55.74;94427.94;5051501;28;20383;-70
2022/09/26 13:03:25;;;;;;;;;;;;;;;16.84;56.16;94430.47;5051401;28;20009;-70
2022/09/26 13:06:00;;;;;;;;;;;;;;;16.95;55.15;94419.88;5050661;28;20014;-71
2022/09/26 13:08:44;;;;;;;;;;;;;;;18.21;52.22;94404.13;5050795;28;20013;-70
2022/09/26 13:11:21;;;;;;;;;;;;;;;17.37;54.68;94406.25;5051918;28;20571;-70
2022/09/26 13:14:13;;;;;;;;;;;;;;;18.04;52.80;94398.19;5049616;28;20013;-71